Time;durP1;ratioP1;P1;durP2;ratioP2;P2;SDS_P1;SDS_P2;PMS_P1;PMS_P2;Temp;Humidity;BMP_temperature;BMP_pressure;BME280_temperature;BME280_humidity;BME280_pressure;Samples;Min_cycle;Max_cycle;Signal;HPM_P1;HPM_P2
2022/08/05 00:02:26;;;;;;;;;;;18.80;72.00;;;;;;4951555;28;19938;-85
2022/08/05 00:04:55;;;;;;;;;;;18.80;72.00;;;;;;4968209;28;19930;-86
2022/08/05 00:07:23;;;;;;;;;;;18.80;71.80;;;;;;4955142;28;19930;-85
2022/08/05 00:10:11;;;;;;;;;;;18.80;72.10;;;;;;4977410;28;19933;-86
2022/08/05 00:12:40;;;;;;;;;;;18.70;72.20;;;;;;4980676;28;19926;-86
2022/08/05 00:15:23;;;;;;;;;;;18.70;72.10;;;;;;4949696;28;20274;-86
2022/08/05 00:18:11;;;;;;;;;;;18.70;72.10;;;;;;4963319;28;19941;-87
2022/08/05 00:20:49;;;;;;;;;;;18.70;72.20;;;;;;4976918;28;20297;-86
2022/08/05 00:23:17;;;;;;;;;;;18.60;72.50;;;;;;4976275;28;19926;-85
2022/08/05 00:26:05;;;;;;;;;;;18.60;72.40;;;;;;4944339;29;19941;-86
2022/08/05 00:28:33;;;;;;;;;;;18.50;72.70;;;;;;4969285;28;20394;-85
2022/08/05 00:31:02;;;;;;;;;;;18.50;72.70;;;;;;4960692;28;19930;-85
2022/08/05 00:33:34;;;;;;;;;;;18.50;72.80;;;;;;4957678;28;20378;-85
2022/08/05 00:36:23;;;;;;;;;;;18.40;73.10;;;;;;4939015;28;19927;-86
2022/08/05 00:39:11;;;;;;;;;;;18.40;72.80;;;;;;4972036;28;19930;-85
2022/08/05 00:41:43;;;;;;;;;;;18.40;72.90;;;;;;4971550;28;19930;-86
2022/08/05 00:44:22;;;;;;;;;;;18.30;72.80;;;;;;4978419;28;19933;-85
2022/08/05 00:46:58;;;;;;;;;;;18.30;72.80;;;;;;4960173;28;19948;-85
2022/08/05 00:49:32;;;;;;;;;;;18.20;72.80;;;;;;4977089;28;19926;-86
2022/08/05 00:52:18;;;;;;;;;;;18.20;72.90;;;;;;4977092;28;19926;-86
2022/08/05 00:54:55;;;;;;;;;;;18.20;73.10;;;;;;4977419;28;19930;-86
2022/08/05 00:57:23;;;;;;;;;;;18.20;73.50;;;;;;4961638;28;19937;-85
2022/08/05 00:59:58;;;;;;;;;;;18.20;73.20;;;;;;4982124;28;19933;-86
2022/08/05 01:02:25;;;;;;;;;;;18.10;72.90;;;;;;4977917;28;19926;-85
2022/08/05 01:04:53;;;;;;;;;;;18.10;73.20;;;;;;4978962;28;19943;-86
2022/08/05 01:07:22;;;;;;;;;;;18.10;73.20;;;;;;4959012;29;19933;-86
2022/08/05 01:09:58;;;;;;;;;;;18.00;72.70;;;;;;4974877;28;19957;-85
2022/08/05 01:12:26;;;;;;;;;;;18.00;73.20;;;;;;4965141;28;20321;-86
2022/08/05 01:15:07;;;;;;;;;;;18.00;72.70;;;;;;4963324;28;19930;-86
2022/08/05 01:17:59;;;;;;;;;;;17.60;72.50;;;;;;4976676;28;20096;-86
2022/08/05 01:20:37;;;;;;;;;;;18.00;73.20;;;;;;4978446;28;19926;-85
2022/08/05 01:23:06;;;;;;;;;;;18.00;72.70;;;;;;4975920;28;19930;-87
2022/08/05 01:25:52;;;;;;;;;;;17.90;72.60;;;;;;4974121;28;19926;-86
2022/08/05 01:28:20;;;;;;;;;;;17.90;72.60;;;;;;4954151;28;20397;-86
2022/08/05 01:31:01;;;;;;;;;;;17.80;72.70;;;;;;4971498;28;20292;-85
2022/08/05 01:33:34;;;;;;;;;;;17.80;72.80;;;;;;4953049;28;19930;-85
2022/08/05 01:36:06;;;;;;;;;;;17.70;72.80;;;;;;4969625;28;19937;-85
2022/08/05 01:38:39;;;;;;;;;;;17.60;73.30;;;;;;4955873;28;19933;-85
2022/08/05 01:41:07;;;;;;;;;;;17.60;73.30;;;;;;4954207;28;19949;-86
2022/08/05 01:43:37;;;;;;;;;;;17.50;73.50;;;;;;4972301;28;19938;-85
2022/08/05 01:46:07;;;;;;;;;;;17.50;73.30;;;;;;4956577;28;19926;-85
2022/08/05 01:48:43;;;;;;;;;;;17.50;73.70;;;;;;4975493;28;19933;-85
2022/08/05 01:51:16;;;;;;;;;;;17.50;73.90;;;;;;4974135;28;19930;-86
2022/08/05 01:53:46;;;;;;;;;;;17.50;73.70;;;;;;4973909;28;19930;-85
2022/08/05 01:56:28;;;;;;;;;;;17.50;73.90;;;;;;4965265;28;19930;-86
2022/08/05 01:59:16;;;;;;;;;;;17.40;73.80;;;;;;4973617;28;19934;-85
2022/08/05 02:01:46;;;;;;;;;;;17.40;74.20;;;;;;4934528;29;19927;-86
2022/08/05 02:04:17;;;;;;;;;;;17.50;74.40;;;;;;4968663;28;19930;-86
2022/08/05 02:06:44;;;;;;;;;;;17.40;74.40;;;;;;4973972;28;19930;-86
2022/08/05 02:09:14;;;;;;;;;;;17.40;74.90;;;;;;4966358;28;19926;-85
2022/08/05 02:12:04;;;;;;;;;;;17.30;75.50;;;;;;4961670;28;19934;-86
2022/08/05 02:14:42;;;;;;;;;;;17.30;75.50;;;;;;4967992;28;19929;-85
2022/08/05 02:17:33;;;;;;;;;;;17.20;75.50;;;;;;4957913;28;19933;-86
2022/08/05 02:20:22;;;;;;;;;;;17.20;75.90;;;;;;4957298;28;19926;-85
2022/08/05 02:23:04;;;;;;;;;;;17.20;76.20;;;;;;4945058;29;19931;-86
2022/08/05 02:25:35;;;;;;;;;;;17.10;76.60;;;;;;4957627;28;19930;-86
2022/08/05 02:28:21;;;;;;;;;;;17.10;76.60;;;;;;4956916;28;19930;-85
2022/08/05 02:31:07;;;;;;;;;;;17.00;76.90;;;;;;4943234;28;19945;-86
2022/08/05 02:33:46;;;;;;;;;;;17.00;77.10;;;;;;4976132;28;19933;-85
2022/08/05 02:36:16;;;;;;;;;;;16.90;77.30;;;;;;4981100;28;19950;-86
2022/08/05 02:38:45;;;;;;;;;;;16.90;77.40;;;;;;4971056;28;19926;-86
2022/08/05 02:41:21;;;;;;;;;;;16.90;77.30;;;;;;4960070;28;19930;-86
2022/08/05 02:43:50;;;;;;;;;;;16.90;77.60;;;;;;4978811;28;19926;-85
2022/08/05 02:46:34;;;;;;;;;;;16.90;77.50;;;;;;4958327;28;19926;-86
2022/08/05 02:49:20;;;;;;;;;;;16.90;77.40;;;;;;4956129;28;19940;-84
2022/08/05 02:51:49;;;;;;;;;;;16.90;77.10;;;;;;4973006;28;19933;-85
2022/08/05 02:54:32;;;;;;;;;;;16.80;77.70;;;;;;4977459;28;19937;-86
2022/08/05 02:57:07;;;;;;;;;;;16.80;77.60;;;;;;4978177;28;19934;-85
2022/08/05 02:59:55;;;;;;;;;;;16.80;77.70;;;;;;4979357;28;19926;-85
2022/08/05 03:02:27;;;;;;;;;;;16.80;77.70;;;;;;4959531;28;19945;-85
2022/08/05 03:04:56;;;;;;;;;;;16.80;77.90;;;;;;4962884;28;19930;-85
2022/08/05 03:07:25;;;;;;;;;;;16.80;77.70;;;;;;4958587;28;19926;-85
2022/08/05 03:10:14;;;;;;;;;;;16.80;78.00;;;;;;4976438;28;19933;-85
2022/08/05 03:12:48;;;;;;;;;;;16.80;78.30;;;;;;4977379;28;20636;-86
2022/08/05 03:15:18;;;;;;;;;;;16.80;77.80;;;;;;4979198;28;19930;-85
2022/08/05 03:17:46;;;;;;;;;;;16.70;77.90;;;;;;4983002;28;20329;-85
2022/08/05 03:20:20;;;;;;;;;;;16.70;77.80;;;;;;4973176;28;20404;-85
2022/08/05 03:22:50;;;;;;;;;;;16.60;77.90;;;;;;4978314;28;19934;-85
2022/08/05 03:25:19;;;;;;;;;;;16.70;78.00;;;;;;4942462;28;20381;-85
2022/08/05 03:28:07;;;;;;;;;;;16.60;77.60;;;;;;4968598;28;19934;-85
2022/08/05 03:30:35;;;;;;;;;;;16.60;77.70;;;;;;4956712;28;19937;-85
2022/08/05 03:33:07;;;;;;;;;;;16.60;77.80;;;;;;4959333;28;19937;-86
2022/08/05 03:35:35;;;;;;;;;;;16.50;77.80;;;;;;4944838;28;20332;-86
2022/08/05 03:38:11;;;;;;;;;;;16.50;77.80;;;;;;4963319;28;20332;-84
2022/08/05 03:40:41;;;;;;;;;;;16.50;77.90;;;;;;4993349;28;20464;-85
2022/08/05 03:43:14;;;;;;;;;;;16.40;77.90;;;;;;4960939;28;19942;-86
2022/08/05 03:46:03;;;;;;;;;;;16.40;77.80;;;;;;4975356;28;19926;-85
2022/08/05 03:48:30;;;;;;;;;;;16.30;78.00;;;;;;4974457;28;19941;-85
2022/08/05 03:51:25;;;;;;;;;;;16.30;78.20;;;;;;4958131;28;19926;-85
2022/08/05 03:54:15;;;;;;;;;;;16.30;78.40;;;;;;4976423;28;19926;-86
2022/08/05 03:57:04;;;;;;;;;;;16.20;78.50;;;;;;4960625;28;19933;-86
2022/08/05 03:59:48;;;;;;;;;;;16.10;78.20;;;;;;4970159;28;19926;-85
2022/08/05 04:02:24;;;;;;;;;;;16.20;79.00;;;;;;4956745;28;19926;-85
2022/08/05 04:05:11;;;;;;;;;;;16.20;78.50;;;;;;4969891;28;19926;-85
2022/08/05 04:07:40;;;;;;;;;;;16.20;78.90;;;;;;4981781;28;19926;-86
2022/08/05 04:10:25;;;;;;;;;;;16.20;78.70;;;;;;4986985;28;19926;-85
2022/08/05 04:12:55;;;;;;;;;;;16.20;79.10;;;;;;4977549;28;20398;-87
2022/08/05 04:15:26;;;;;;;;;;;16.20;79.00;;;;;;4978848;28;20317;-86
2022/08/05 04:18:03;;;;;;;;;;;16.10;79.20;;;;;;4979083;28;20309;-86
2022/08/05 04:20:33;;;;;;;;;;;17.00;79.70;;;;;;4977306;28;19926;-85
2022/08/05 04:23:02;;;;;;;;;;;16.10;79.40;;;;;;4946885;28;19976;-86
2022/08/05 04:25:29;;;;;;;;;;;16.00;79.80;;;;;;4982338;28;19936;-85
2022/08/05 04:28:18;;;;;;;;;;;16.10;79.70;;;;;;4971914;28;19930;-85
2022/08/05 04:30:47;;;;;;;;;;;16.00;79.50;;;;;;4978531;28;20005;-85
2022/08/05 04:33:14;;;;;;;;;;;16.00;80.10;;;;;;4979349;28;19981;-85
2022/08/05 04:35:46;;;;;;;;;;;15.90;80.00;;;;;;4977689;28;19926;-85
2022/08/05 04:38:35;;;;;;;;;;;15.90;80.10;;;;;;4980011;28;19926;-85
2022/08/05 04:41:07;;;;;;;;;;;15.80;80.20;;;;;;4962662;28;19927;-85
2022/08/05 04:43:36;;;;;;;;;;;15.80;80.50;;;;;;4956189;28;19933;-85
2022/08/05 04:46:14;;;;;;;;;;;15.70;80.50;;;;;;4979698;28;19925;-85
2022/08/05 04:48:54;;;;;;;;;;;15.70;80.70;;;;;;4976566;28;19926;-85
2022/08/05 04:51:25;;;;;;;;;;;15.70;80.90;;;;;;4974759;28;19937;-85
2022/08/05 04:53:57;;;;;;;;;;;15.70;81.20;;;;;;4974161;28;19938;-85
2022/08/05 04:56:28;;;;;;;;;;;15.60;81.00;;;;;;4965476;28;20317;-85
2022/08/05 04:59:03;;;;;;;;;;;15.70;81.30;;;;;;4974471;28;19926;-85
2022/08/05 05:01:51;;;;;;;;;;;15.60;81.10;;;;;;4974199;28;20214;-85
2022/08/05 05:04:38;;;;;;;;;;;15.60;81.20;;;;;;4974827;28;19949;-85
2022/08/05 05:07:15;;;;;;;;;;;15.60;82.10;;;;;;4979166;28;19926;-85
2022/08/05 05:09:44;;;;;;;;;;;15.60;81.30;;;;;;4973895;28;19933;-85
2022/08/05 05:12:11;;;;;;;;;;;15.10;81.00;;;;;;4970729;28;19933;-85
2022/08/05 05:14:41;;;;;;;;;;;15.50;81.40;;;;;;4990403;28;19934;-86
2022/08/05 05:17:17;;;;;;;;;;;15.50;81.20;;;;;;4941771;28;20305;-85
2022/08/05 05:19:54;;;;;;;;;;;15.60;80.80;;;;;;4983442;28;19933;-85
2022/08/05 05:22:23;;;;;;;;;;;15.60;81.30;;;;;;4974525;28;19930;-86
2022/08/05 05:24:53;;;;;;;;;;;15.60;81.40;;;;;;4964533;28;19927;-85
2022/08/05 05:27:33;;;;;;;;;;;15.60;80.80;;;;;;4982230;28;19930;-85
2022/08/05 05:30:13;;;;;;;;;;;15.60;81.10;;;;;;4981382;28;19922;-86
2022/08/05 05:32:56;;;;;;;;;;;15.60;81.30;;;;;;4967092;28;19930;-85
2022/08/05 05:35:30;;;;;;;;;;;15.60;81.00;;;;;;4983473;28;19926;-85
2022/08/05 05:38:06;;;;;;;;;;;16.90;82.10;;;;;;4981931;28;19933;-85
2022/08/05 05:40:39;;;;;;;;;;;15.60;80.60;;;;;;4989787;28;19954;-86
2022/08/05 05:43:18;;;;;;;;;;;15.50;80.30;;;;;;4983149;28;19930;-85
2022/08/05 05:46:07;;;;;;;;;;;15.50;80.40;;;;;;4967177;28;19926;-86
2022/08/05 05:48:42;;;;;;;;;;;15.50;80.70;;;;;;4961782;28;20373;-85
2022/08/05 05:51:11;;;;;;;;;;;15.90;80.80;;;;;;4977552;28;19933;-85
2022/08/05 05:53:43;;;;;;;;;;;15.60;80.40;;;;;;4960601;28;19926;-85
2022/08/05 05:56:26;;;;;;;;;;;15.60;80.60;;;;;;4961527;28;19937;-85
2022/08/05 05:59:04;;;;;;;;;;;15.60;80.60;;;;;;4978823;28;20475;-85
2022/08/05 06:01:37;;;;;;;;;;;15.70;80.40;;;;;;4974936;28;19926;-85
2022/08/05 06:04:07;;;;;;;;;;;15.70;80.80;;;;;;4973193;28;19926;-84
2022/08/05 06:06:39;;;;;;;;;;;15.70;80.80;;;;;;4945011;28;19937;-85
2022/08/05 06:09:08;;;;;;;;;;;15.70;80.40;;;;;;4984773;28;19937;-84
2022/08/05 06:11:44;;;;;;;;;;;15.70;80.70;;;;;;4976793;28;19930;-84
2022/08/05 06:14:27;;;;;;;;;;;15.70;80.70;;;;;;4964034;28;19926;-86
2022/08/05 06:16:55;;;;;;;;;;;15.70;80.60;;;;;;4960690;28;19937;-86
2022/08/05 06:19:23;;;;;;;;;;;15.70;80.60;;;;;;4971289;28;20302;-85
2022/08/05 06:22:05;;;;;;;;;;;16.00;80.60;;;;;;4980204;28;20586;-84
2022/08/05 06:24:40;;;;;;;;;;;15.70;80.60;;;;;;4979095;28;19937;-85
2022/08/05 06:27:15;;;;;;;;;;;15.80;80.50;;;;;;4959555;28;19931;-85
2022/08/05 06:30:03;;;;;;;;;;;15.70;80.50;;;;;;4952035;28;19927;-85
2022/08/05 06:33:02;;;;;;;;;;;15.70;80.50;;;;;;4982878;28;19940;-85
2022/08/05 06:35:37;;;;;;;;;;;15.80;80.60;;;;;;4962300;28;19933;-85
2022/08/05 06:38:25;;;;;;;;;;;15.80;80.50;;;;;;4972372;28;19941;-85
2022/08/05 06:41:04;;;;;;;;;;;14.70;80.00;;;;;;4973189;28;20317;-84
2022/08/05 06:43:37;;;;;;;;;;;15.80;80.90;;;;;;4973950;28;19933;-84
2022/08/05 06:46:25;;;;;;;;;;;15.90;81.10;;;;;;4974739;28;19927;-84
2022/08/05 06:48:57;;;;;;;;;;;15.90;80.40;;;;;;4976444;28;19933;-83
2022/08/05 06:51:28;;;;;;;;;;;16.00;80.90;;;;;;4976572;28;19926;-83
2022/08/05 06:53:58;;;;;;;;;;;16.00;80.60;;;;;;4978090;28;19926;-82
2022/08/05 06:56:26;;;;;;;;;;;16.10;80.50;;;;;;4976534;28;19937;-83
2022/08/05 06:58:54;;;;;;;;;;;16.10;80.20;;;;;;4977591;28;19926;-82
2022/08/05 07:01:22;;;;;;;;;;;16.20;80.10;;;;;;4978883;28;20728;-83
2022/08/05 07:04:00;;;;;;;;;;;16.20;79.70;;;;;;4975903;28;19926;-83
2022/08/05 07:06:29;;;;;;;;;;;16.30;79.50;;;;;;4960168;28;19926;-83
2022/08/05 07:09:00;;;;;;;;;;;16.40;79.10;;;;;;4984525;28;20304;-84
2022/08/05 07:11:32;;;;;;;;;;;16.40;79.20;;;;;;4964542;28;19934;-82
2022/08/05 07:17:00;;;;;;;;;;;16.40;78.30;;;;;;4977108;28;19933;-83
2022/08/05 07:19:52;;;;;;;;;;;16.40;77.90;;;;;;4989063;28;19926;-83
2022/08/05 07:22:39;;;;;;;;;;;16.50;77.90;;;;;;4966275;28;19926;-84
2022/08/05 07:25:08;;;;;;;;;;;16.50;77.60;;;;;;4984359;28;19933;-83
2022/08/05 07:27:56;;;;;;;;;;;16.60;77.90;;;;;;4978151;28;19930;-84
2022/08/05 07:30:34;;;;;;;;;;;16.70;77.50;;;;;;4977157;28;20266;-84
2022/08/05 07:33:09;;;;;;;;;;;16.80;77.00;;;;;;4961438;28;19937;-84
2022/08/05 07:35:45;;;;;;;;;;;16.80;76.20;;;;;;4969260;28;19937;-83
2022/08/05 07:38:33;;;;;;;;;;;16.90;75.60;;;;;;4973365;28;20296;-84
2022/08/05 07:41:15;;;;;;;;;;;17.00;75.40;;;;;;4964104;28;19930;-83
2022/08/05 07:44:03;;;;;;;;;;;17.10;75.40;;;;;;4967548;28;19937;-84
2022/08/05 07:46:31;;;;;;;;;;;17.10;75.20;;;;;;4968680;28;19930;-83
2022/08/05 07:49:00;;;;;;;;;;;17.20;75.40;;;;;;4967888;28;19949;-83
2022/08/05 07:51:35;;;;;;;;;;;17.20;75.50;;;;;;4966137;28;19934;-84
2022/08/05 07:54:25;;;;;;;;;;;17.20;75.60;;;;;;4967483;28;20329;-82
2022/08/05 07:57:01;;;;;;;;;;;17.30;75.60;;;;;;4965950;28;19926;-83
2022/08/05 07:59:49;;;;;;;;;;;17.20;76.10;;;;;;4952457;28;19926;-83
2022/08/05 08:02:17;;;;;;;;;;;17.30;75.80;;;;;;4976259;28;19926;-83
2022/08/05 08:04:45;;;;;;;;;;;17.30;75.80;;;;;;4974917;28;19931;-83
2022/08/05 08:07:13;;;;;;;;;;;17.40;76.00;;;;;;4971433;28;20218;-82
2022/08/05 08:09:42;;;;;;;;;;;17.50;76.10;;;;;;4968852;28;19937;-82
2022/08/05 08:12:12;;;;;;;;;;;17.50;76.00;;;;;;4960381;28;19926;-82
2022/08/05 08:15:00;;;;;;;;;;;17.60;75.10;;;;;;4963803;28;19930;-82
2022/08/05 08:17:30;;;;;;;;;;;17.60;75.00;;;;;;4963303;28;20350;-82
2022/08/05 08:19:57;;;;;;;;;;;17.60;75.10;;;;;;4966976;28;19961;-82
2022/08/05 08:22:52;;;;;;;;;;;17.70;75.50;;;;;;4967018;28;19930;-82
2022/08/05 08:25:22;;;;;;;;;;;17.70;74.50;;;;;;4947654;28;19930;-83
2022/08/05 08:28:10;;;;;;;;;;;17.70;74.70;;;;;;4955753;28;19961;-82
2022/08/05 08:30:57;;;;;;;;;;;17.70;74.50;;;;;;4967049;28;20489;-83
2022/08/05 08:33:25;;;;;;;;;;;17.80;74.70;;;;;;4963258;28;19926;-82
2022/08/05 08:35:54;;;;;;;;;;;17.80;74.50;;;;;;4965062;28;19926;-83
2022/08/05 08:38:41;;;;;;;;;;;17.90;74.60;;;;;;4961588;28;20421;-83
2022/08/05 08:41:21;;;;;;;;;;;18.00;72.80;;;;;;4967585;28;19926;-83
2022/08/05 08:43:54;;;;;;;;;;;18.00;73.10;;;;;;4957105;28;19926;-83
2022/08/05 08:46:42;;;;;;;;;;;18.00;72.60;;;;;;4958490;28;19937;-84
2022/08/05 08:49:13;;;;;;;;;;;18.10;72.60;;;;;;4954188;28;19935;-83
2022/08/05 08:52:10;;;;;;;;;;;18.10;72.70;;;;;;4955012;28;19934;-84
2022/08/05 08:54:42;;;;;;;;;;;18.20;73.00;;;;;;4953950;28;19931;-84
2022/08/05 08:57:12;;;;;;;;;;;18.20;71.60;;;;;;4958391;28;19953;-83
2022/08/05 08:59:44;;;;;;;;;;;18.20;71.70;;;;;;4947980;28;19930;-83
2022/08/05 09:02:18;;;;;;;;;;;18.20;72.20;;;;;;4938680;28;19945;-83
2022/08/05 09:04:46;;;;;;;;;;;18.30;72.50;;;;;;4963548;28;19930;-83
2022/08/05 09:07:34;;;;;;;;;;;18.30;72.20;;;;;;4966602;28;19930;-84
2022/08/05 09:10:21;;;;;;;;;;;18.40;72.20;;;;;;4963330;28;19934;-84
2022/08/05 09:12:56;;;;;;;;;;;18.50;71.70;;;;;;4964584;28;20348;-84
2022/08/05 09:15:31;;;;;;;;;;;18.50;71.90;;;;;;4963788;28;19930;-84
2022/08/05 09:18:05;;;;;;;;;;;18.50;72.00;;;;;;4966076;28;20406;-83
2022/08/05 09:20:36;;;;;;;;;;;18.60;71.80;;;;;;4965462;28;20163;-85
2022/08/05 09:23:12;;;;;;;;;;;18.70;71.20;;;;;;4963649;28;19926;-84
2022/08/05 09:25:48;;;;;;;;;;;18.70;71.20;;;;;;4962352;28;20420;-84
2022/08/05 09:28:30;;;;;;;;;;;18.70;70.60;;;;;;4949002;28;19926;-84
2022/08/05 09:31:05;;;;;;;;;;;18.80;70.80;;;;;;4961365;28;19926;-84
2022/08/05 09:33:54;;;;;;;;;;;18.80;70.80;;;;;;4964945;28;19934;-85
2022/08/05 09:36:36;;;;;;;;;;;18.90;70.60;;;;;;4946330;28;19930;-83
2022/08/05 09:39:12;;;;;;;;;;;19.00;70.70;;;;;;4962787;28;20330;-84
2022/08/05 09:41:59;;;;;;;;;;;19.00;70.50;;;;;;4960592;28;19934;-83
2022/08/05 09:44:34;;;;;;;;;;;19.10;69.70;;;;;;4962656;28;19933;-83
2022/08/05 09:47:06;;;;;;;;;;;19.20;68.70;;;;;;4962870;28;20612;-82
2022/08/05 09:49:40;;;;;;;;;;;19.20;67.90;;;;;;4962970;28;19926;-84
2022/08/05 09:52:32;;;;;;;;;;;19.30;67.60;;;;;;4960992;28;19926;-83
2022/08/05 09:55:08;;;;;;;;;;;19.30;67.50;;;;;;4961721;28;19930;-83
2022/08/05 09:57:56;;;;;;;;;;;19.40;67.50;;;;;;4963697;28;19937;-83
2022/08/05 10:00:27;;;;;;;;;;;19.40;67.20;;;;;;4966794;28;19930;-84
2022/08/05 10:02:57;;;;;;;;;;;19.50;67.10;;;;;;4951246;28;19933;-83
2022/08/05 10:05:26;;;;;;;;;;;19.60;67.00;;;;;;4965414;28;19934;-84
2022/08/05 10:07:55;;;;;;;;;;;19.70;66.90;;;;;;4966630;28;19935;-84
2022/08/05 10:10:44;;;;;;;;;;;19.80;66.70;;;;;;4948360;28;20381;-84
2022/08/05 10:13:31;;;;;;;;;;;20.00;66.10;;;;;;4949974;28;19941;-84
2022/08/05 10:16:33;;;;;;;;;;;20.10;66.40;;;;;;4952939;28;19934;-84
2022/08/05 10:19:19;;;;;;;;;;;20.20;65.70;;;;;;4966785;28;19934;-84
2022/08/05 10:22:07;;;;;;;;;;;20.30;65.90;;;;;;4964563;28;19937;-85
2022/08/05 10:24:41;;;;;;;;;;;20.50;64.00;;;;;;4933976;28;19942;-84
2022/08/05 10:27:13;;;;;;;;;;;20.50;63.10;;;;;;4965771;28;19926;-83
2022/08/05 10:30:07;;;;;;;;;;;20.50;62.30;;;;;;4964708;28;19937;-84
2022/08/05 10:32:58;;;;;;;;;;;20.50;62.90;;;;;;4966644;28;19930;-84
2022/08/05 10:35:29;;;;;;;;;;;20.50;63.20;;;;;;4966044;28;20021;-84
2022/08/05 10:38:11;;;;;;;;;;;20.60;63.80;;;;;;4966703;28;19930;-85
2022/08/05 10:40:53;;;;;;;;;;;20.70;63.60;;;;;;4964871;28;19949;-84
2022/08/05 10:43:27;;;;;;;;;;;20.80;63.60;;;;;;4949216;28;19934;-85
2022/08/05 10:46:07;;;;;;;;;;;20.90;62.90;;;;;;4982736;28;19926;-85
2022/08/05 10:48:36;;;;;;;;;;;21.00;63.30;;;;;;4966852;28;19937;-85
2022/08/05 10:51:24;;;;;;;;;;;21.20;62.80;;;;;;4965582;28;19934;-84
2022/08/05 10:53:57;;;;;;;;;;;21.30;62.70;;;;;;4965719;28;19949;-84
2022/08/05 10:56:49;;;;;;;;;;;21.40;62.60;;;;;;4947942;28;20052;-85
2022/08/05 10:59:30;;;;;;;;;;;21.50;62.90;;;;;;4944937;28;19926;-84
2022/08/05 11:02:17;;;;;;;;;;;21.90;63.60;;;;;;4962653;28;19933;-84
2022/08/05 11:05:04;;;;;;;;;;;21.20;63.40;;;;;;4962089;28;19926;-84
2022/08/05 11:07:33;;;;;;;;;;;21.80;63.20;;;;;;4976886;28;19933;-84
2022/08/05 11:10:22;;;;;;;;;;;21.90;63.10;;;;;;4961580;28;19930;-85
2022/08/05 11:12:54;;;;;;;;;;;21.90;63.10;;;;;;4947388;28;19927;-86
2022/08/05 11:15:29;;;;;;;;;;;22.00;62.20;;;;;;4961586;28;19931;-84
2022/08/05 11:18:27;;;;;;;;;;;22.00;62.90;;;;;;4962079;28;19934;-83
2022/08/05 11:20:59;;;;;;;;;;;22.20;62.50;;;;;;4961863;28;19941;-84
2022/08/05 11:23:31;;;;;;;;;;;22.20;62.10;;;;;;4961626;28;19941;-84
2022/08/05 11:26:20;;;;;;;;;;;22.20;61.90;;;;;;4959938;28;20375;-83
2022/08/05 11:28:59;;;;;;;;;;;22.20;61.80;;;;;;4961913;28;19942;-82
2022/08/05 11:31:43;;;;;;;;;;;22.30;61.80;;;;;;4958576;28;19931;-84
2022/08/05 11:34:37;;;;;;;;;;;22.30;62.00;;;;;;4960550;28;19934;-84
2022/08/05 11:37:04;;;;;;;;;;;22.40;62.10;;;;;;4959075;28;19926;-82
2022/08/05 11:39:52;;;;;;;;;;;22.40;62.20;;;;;;4955361;28;19933;-81
2022/08/05 11:42:30;;;;;;;;;;;22.40;61.90;;;;;;4960821;28;19953;-82
2022/08/05 11:45:02;;;;;;;;;;;22.40;61.80;;;;;;4943456;28;19933;-83
2022/08/05 11:47:34;;;;;;;;;;;22.50;62.00;;;;;;4958699;28;19926;-82
2022/08/05 11:50:17;;;;;;;;;;;22.50;61.30;;;;;;4959622;28;20301;-83
2022/08/05 11:52:44;;;;;;;;;;;22.20;61.40;;;;;;4961485;28;19934;-83
2022/08/05 11:55:16;;;;;;;;;;;22.60;61.20;;;;;;4959182;28;19937;-84
2022/08/05 11:57:44;;;;;;;;;;;22.60;61.40;;;;;;4961005;28;19934;-83
2022/08/05 12:00:32;;;;;;;;;;;22.90;61.30;;;;;;4955983;28;19941;-86
2022/08/05 12:03:15;;;;;;;;;;;23.00;61.30;;;;;;4959287;28;19935;-84
2022/08/05 12:06:03;;;;;;;;;;;23.10;60.50;;;;;;4959661;28;19926;-85
2022/08/05 12:09:00;;;;;;;;;;;23.10;60.50;;;;;;4962591;28;20242;-84
2022/08/05 12:11:29;;;;;;;;;;;23.00;60.60;;;;;;4961672;28;19927;-85
2022/08/05 12:14:07;;;;;;;;;;;23.00;60.40;;;;;;4964654;28;19930;-85
2022/08/05 12:16:39;;;;;;;;;;;23.10;60.50;;;;;;4964188;28;19930;-85
2022/08/05 12:19:15;;;;;;;;;;;23.20;60.30;;;;;;4963185;28;19942;-84
2022/08/05 12:22:04;;;;;;;;;;;25.00;60.90;;;;;;4943779;28;20501;-84
2022/08/05 12:24:46;;;;;;;;;;;23.50;60.50;;;;;;4962483;28;19930;-84
2022/08/05 12:27:28;;;;;;;;;;;23.60;60.20;;;;;;4960504;28;19934;-84
2022/08/05 12:30:05;;;;;;;;;;;23.60;60.00;;;;;;4960515;28;19945;-84
2022/08/05 12:32:35;;;;;;;;;;;23.70;59.70;;;;;;4964690;28;19930;-85
2022/08/05 12:35:06;;;;;;;;;;;23.80;59.60;;;;;;4960881;28;20313;-86
2022/08/05 12:37:34;;;;;;;;;;;23.80;59.60;;;;;;4962391;28;19937;-85
2022/08/05 12:40:07;;;;;;;;;;;24.00;59.50;;;;;;4962472;28;19941;-84
2022/08/05 12:42:38;;;;;;;;;;;24.00;59.00;;;;;;4962472;28;19945;-84
2022/08/05 12:45:06;;;;;;;;;;;23.90;59.40;;;;;;4962466;28;20301;-85
2022/08/05 12:47:36;;;;;;;;;;;23.80;58.40;;;;;;4946527;28;19930;-84
2022/08/05 12:50:13;;;;;;;;;;;23.90;58.40;;;;;;4961685;28;19933;-85
2022/08/05 12:52:52;;;;;;;;;;;24.10;58.10;;;;;;4963305;28;20313;-85
2022/08/05 12:55:25;;;;;;;;;;;24.20;58.10;;;;;;4946043;28;19926;-86
2022/08/05 12:57:55;;;;;;;;;;;24.20;58.10;;;;;;4946685;28;19934;-83
2022/08/05 13:00:44;;;;;;;;;;;24.10;58.00;;;;;;4962932;28;19945;-84
2022/08/05 13:03:36;;;;;;;;;;;23.90;58.00;;;;;;4960740;28;19931;-84
2022/08/05 13:06:16;;;;;;;;;;;23.90;58.20;;;;;;4939931;28;19937;-85
2022/08/05 13:08:45;;;;;;;;;;;24.20;57.90;;;;;;4955130;28;19933;-84
2022/08/05 13:11:22;;;;;;;;;;;24.40;57.10;;;;;;4957446;28;20041;-84
2022/08/05 13:14:18;;;;;;;;;;;24.40;57.00;;;;;;4964286;28;20386;-84
2022/08/05 13:16:46;;;;;;;;;;;24.30;56.20;;;;;;4961641;28;20204;-83
2022/08/05 13:19:13;;;;;;;;;;;24.20;56.60;;;;;;4961551;28;19926;-84
2022/08/05 13:21:44;;;;;;;;;;;24.40;57.50;;;;;;4966529;28;19926;-83
2022/08/05 13:24:23;;;;;;;;;;;24.40;57.00;;;;;;4950323;28;19933;-85
2022/08/05 13:27:10;;;;;;;;;;;24.70;56.90;;;;;;4965631;28;19933;-85
2022/08/05 13:29:49;;;;;;;;;;;24.80;56.60;;;;;;4964540;28;20398;-84
2022/08/05 13:32:37;;;;;;;;;;;24.70;56.90;;;;;;4957845;28;19926;-85
2022/08/05 13:35:17;;;;;;;;;;;24.60;56.50;;;;;;4978351;28;19937;-83
2022/08/05 13:37:57;;;;;;;;;;;24.60;56.30;;;;;;4971465;28;20390;-84
2022/08/05 13:40:36;;;;;;;;;;;24.70;56.40;;;;;;4939800;28;19937;-85
2022/08/05 13:43:18;;;;;;;;;;;25.20;56.30;;;;;;4959697;28;20291;-85
2022/08/05 13:45:48;;;;;;;;;;;25.20;55.20;;;;;;4964672;28;19941;-86
2022/08/05 13:48:17;;;;;;;;;;;25.30;55.30;;;;;;4967619;28;19926;-86
2022/08/05 13:51:06;;;;;;;;;;;25.20;55.60;;;;;;4964137;28;19927;-85
2022/08/05 13:53:37;;;;;;;;;;;25.00;56.20;;;;;;4966731;28;19934;-87
2022/08/05 13:56:16;;;;;;;;;;;24.80;56.40;;;;;;4965819;28;19934;-86
2022/08/05 13:58:46;;;;;;;;;;;24.50;56.40;;;;;;4966737;28;19930;-85
2022/08/05 14:01:20;;;;;;;;;;;24.50;56.50;;;;;;4964246;28;19930;-87
2022/08/05 14:06:54;;;;;;;;;;;25.00;56.30;;;;;;4965364;28;19942;-84
2022/08/05 14:09:42;;;;;;;;;;;25.70;56.00;;;;;;4965694;28;19934;-86
2022/08/05 14:12:13;;;;;;;;;;;26.00;55.00;;;;;;4964860;28;19933;-84
2022/08/05 14:14:59;;;;;;;;;;;26.00;54.60;;;;;;4967638;28;20286;-85
2022/08/05 14:17:32;;;;;;;;;;;25.80;55.00;;;;;;4965296;28;19934;-86
2022/08/05 14:20:00;;;;;;;;;;;25.40;54.80;;;;;;4966972;28;19934;-85
2022/08/05 14:22:34;;;;;;;;;;;25.00;55.10;;;;;;4622727;28;10000010;-85
2022/08/05 14:25:03;;;;;;;;;;;24.70;55.40;;;;;;4967435;28;20302;-85
2022/08/05 14:27:47;;;;;;;;;;;25.00;55.20;;;;;;4965382;28;19934;-85
2022/08/05 14:30:14;;;;;;;;;;;25.50;54.70;;;;;;4967668;28;19934;-85
2022/08/05 14:32:47;;;;;;;;;;;26.10;54.60;;;;;;4965795;28;20409;-86
2022/08/05 14:35:15;;;;;;;;;;;26.40;53.80;;;;;;4970360;28;19926;-85
2022/08/05 14:37:47;;;;;;;;;;;26.60;53.50;;;;;;4970435;28;19926;-84
2022/08/05 14:40:21;;;;;;;;;;;26.70;53.50;;;;;;4967896;28;19937;-85
2022/08/05 14:42:51;;;;;;;;;;;27.00;53.00;;;;;;4938748;28;20278;-85
2022/08/05 14:45:18;;;;;;;;;;;27.00;53.00;;;;;;4975408;28;19929;-85
2022/08/05 14:47:47;;;;;;;;;;;26.70;52.50;;;;;;4979097;28;20208;-85
2022/08/05 14:50:32;;;;;;;;;;;26.40;52.70;;;;;;4961811;28;20385;-84
2022/08/05 14:53:07;;;;;;;;;;;26.40;53.00;;;;;;4966155;28;19941;-85
2022/08/05 14:55:35;;;;;;;;;;;26.50;52.70;;;;;;4957382;28;19937;-83
2022/08/05 14:58:07;;;;;;;;;;;26.70;53.30;;;;;;4970643;28;20393;-85
2022/08/05 15:00:39;;;;;;;;;;;26.80;52.80;;;;;;4961182;28;19927;-86
2022/08/05 15:03:27;;;;;;;;;;;27.00;52.60;;;;;;4961922;28;19957;-87
2022/08/05 15:06:01;;;;;;;;;;;27.60;52.10;;;;;;4965251;28;19937;-86
2022/08/05 15:08:42;;;;;;;;;;;28.10;51.30;;;;;;4960036;28;19930;-86
2022/08/05 15:11:28;;;;;;;;;;;28.50;50.90;;;;;;4969670;28;19963;-86
2022/08/05 15:14:15;;;;;;;;;;;28.80;51.00;;;;;;4972499;28;19941;-86
2022/08/05 15:17:03;;;;;;;;;;;29.20;51.00;;;;;;4972912;28;19937;-86
2022/08/05 15:19:36;;;;;;;;;;;29.50;50.40;;;;;;4968059;28;19937;-85